Depue, Illinois
Current Conditions -  °F | °C
As of 6:55 AM on Saturday 25 Oct 2014 (Local Time) from KVYS Reporting Station
Haze Haze  
Wind Chill: 58°   Ceiling: 400
Heat Index: 58°   Visibility: 2.5mi
Dew Point: 57°   Wind: 7mph
Humidity: 97%   Direction: 290°WNW
Pressure: 29.95"   Gusts: NA
Location:  41.32°N, 89.31°W
Report Text: KVYS 251155Z AUTO 29006KT 2 1/2SM BR OVC004 14/14 A2995 RMK AO2 T01420138 10145 20120
Loading
Personal Weather Stations






























Interactive Weather Map
Tropical Storm Tracking
New forecast layout! Learn more

10-Day Weather Forecast

Advertisements
Track Severe Weather on mobile